Time;durP1;ratioP1;P1;durP2;ratioP2;P2;SDS_P1;SDS_P2;PMS_P1;PMS_P2;Temp;Humidity;BMP_temperature;BMP_pressure;BME280_temperature;BME280_humidity;BME280_pressure;Samples;Min_cycle;Max_cycle;Signal;HPM_P1;HPM_P2
2022/10/10 00:01:47;;;;;;;2.03;1.20;;;18.20;69.70;;;;;;4218667;28;20038;-45
2022/10/10 00:04:10;;;;;;;2.90;0.77;;;18.20;69.60;;;;;;4216613;27;20039;-48
2022/10/10 00:06:33;;;;;;;1.10;0.90;;;18.20;69.50;;;;;;4221472;27;20039;-46
2022/10/10 00:08:55;;;;;;;1.55;0.77;;;18.20;69.60;;;;;;4221184;27;20513;-48
2022/10/10 00:11:21;;;;;;;4.07;0.90;;;18.20;69.70;;;;;;4221331;27;20031;-48
2022/10/10 00:13:44;;;;;;;0.93;0.70;;;18.20;69.70;;;;;;4224309;27;20042;-47
2022/10/10 00:16:07;;;;;;;3.47;1.15;;;18.30;69.80;;;;;;4217114;27;20067;-47
2022/10/10 00:18:30;;;;;;;1.48;0.85;;;18.30;70.00;;;;;;4219778;27;20040;-45
2022/10/10 00:20:53;;;;;;;1.80;1.00;;;18.30;70.00;;;;;;4220425;27;20486;-46
2022/10/10 00:23:16;;;;;;;1.80;0.60;;;18.30;70.10;;;;;;4222923;27;20904;-50
2022/10/10 00:25:38;;;;;;;6.50;0.90;;;18.30;70.00;;;;;;4216121;27;20127;-49
2022/10/10 00:28:02;;;;;;;1.13;0.55;;;18.30;70.00;;;;;;4216399;27;20035;-40
2022/10/10 00:30:25;;;;;;;3.72;1.08;;;18.30;70.00;;;;;;4218137;27;20032;-41
2022/10/10 00:32:47;;;;;;;2.75;0.90;;;18.30;70.40;;;;;;4220997;27;20085;-41
2022/10/10 00:35:10;;;;;;;5.18;0.88;;;18.40;70.60;;;;;;4215673;27;20604;-41
2022/10/10 00:37:32;;;;;;;4.15;1.00;;;18.50;70.50;;;;;;4220380;27;20445;-41
2022/10/10 00:39:55;;;;;;;1.45;0.70;;;18.50;70.00;;;;;;4220098;27;20518;-42
2022/10/10 00:42:18;;;;;;;13.05;1.50;;;18.60;69.70;;;;;;4223062;27;20036;-41
2022/10/10 00:44:42;;;;;;;4.50;0.93;;;18.60;69.00;;;;;;4228086;27;20044;-40
2022/10/10 00:47:04;;;;;;;3.03;0.93;;;18.60;68.50;;;;;;4222701;27;20060;-46
2022/10/10 00:49:30;;;;;;;1.75;0.93;;;18.60;68.70;;;;;;4222552;27;21236;-40
2022/10/10 00:51:56;;;;;;;2.65;1.15;;;18.60;68.70;;;;;;4221865;27;20043;-43
2022/10/10 00:54:21;;;;;;;1.73;0.90;;;18.70;68.80;;;;;;4219883;27;20423;-43
2022/10/10 00:56:49;;;;;;;3.90;1.00;;;18.70;68.80;;;;;;4225009;27;20421;-49
2022/10/10 00:59:13;;;;;;;1.98;0.80;;;18.70;68.90;;;;;;4225350;27;20511;-45
2022/10/10 01:01:36;;;;;;;1.13;0.70;;;18.80;69.00;;;;;;4218989;27;20042;-40
2022/10/10 01:04:00;;;;;;;2.60;0.82;;;18.80;68.80;;;;;;4221345;27;20556;-43
2022/10/10 01:06:23;;;;;;;3.17;0.95;;;18.80;68.50;;;;;;4222963;27;20161;-42
2022/10/10 01:08:45;;;;;;;3.30;1.10;;;18.80;68.20;;;;;;4224411;27;20084;-39
2022/10/10 01:11:37;;;;;;;6.03;1.55;;;18.80;67.00;;;;;;4226262;27;20537;-45
2022/10/10 01:14:12;;;;;;;2.72;1.23;;;18.70;66.90;;;;;;4222331;27;20058;-41
2022/10/10 01:16:40;;;;;;;;;;;18.70;66.50;;;;;;4223415;27;20493;-39
2022/10/10 01:19:25;;;;;;;3.13;1.27;;;18.70;66.20;;;;;;4222947;27;19955;-40
2022/10/10 01:22:00;;;;;;;3.83;1.88;;;18.60;65.70;;;;;;4220094;27;20073;-42
2022/10/10 01:24:49;;;;;;;2.28;1.63;;;18.60;65.60;;;;;;4210091;28;20068;-40
2022/10/10 01:27:25;;;;;;;4.05;1.60;;;18.50;65.40;;;;;;4211791;27;20070;-41
2022/10/10 01:30:13;;;;;;;4.55;1.40;;;18.50;66.30;;;;;;4221389;27;20514;-42
2022/10/10 01:32:38;;;;;;;3.05;1.48;;;18.60;66.80;;;;;;4217325;27;20036;-41
2022/10/10 01:35:42;;;;;;;4.20;1.60;;;18.60;67.20;;;;;;4218558;27;20481;-44
2022/10/10 01:38:16;;;;;;;8.05;1.95;;;18.60;67.10;;;;;;4193496;27;20122;-42
2022/10/10 01:40:56;;;;;;;5.47;1.60;;;18.70;67.40;;;;;;4215659;27;20491;-46
2022/10/10 01:43:20;;;;;;;13.73;1.63;;;18.70;67.70;;;;;;4213523;27;20071;-43
2022/10/10 01:45:47;;;;;;;8.30;1.50;;;18.70;67.90;;;;;;4220042;27;20036;-41
2022/10/10 01:48:10;;;;;;;6.00;1.70;;;18.70;68.00;;;;;;4220702;27;20373;-47
2022/10/10 01:50:44;;;;;;;2.88;1.30;;;18.70;68.30;;;;;;4216871;27;21587;-45
2022/10/10 01:53:23;;;;;;;3.45;1.23;;;18.70;68.30;;;;;;4221235;27;20035;-41
2022/10/10 01:55:56;;;;;;;2.08;1.23;;;18.70;68.40;;;;;;4225110;27;20042;-42
2022/10/10 01:58:29;;;;;;;11.38;1.60;;;18.70;68.40;;;;;;4218212;27;20108;-45
2022/10/10 02:01:23;;;;;;;15.73;2.05;;;18.80;68.80;;;;;;4220163;27;20142;-40
2022/10/10 02:03:51;;;;;;;9.23;1.90;;;18.80;68.80;;;;;;4216527;27;20112;-43
2022/10/10 02:06:25;;;;;;;10.07;1.77;;;18.80;69.00;;;;;;4216958;27;20758;-41
2022/10/10 02:08:59;;;;;;;6.80;1.60;;;18.80;69.00;;;;;;4213277;27;20043;-44
2022/10/10 02:11:22;;;;;;;;;;;18.90;69.20;;;;;;4215603;27;20043;-44
2022/10/10 02:13:52;;;;;;;5.45;1.70;;;18.90;69.20;;;;;;4212163;27;19951;-42
2022/10/10 02:16:43;;;;;;;2.58;1.42;;;18.90;69.30;;;;;;4213824;27;20075;-42
2022/10/10 02:19:10;;;;;;;8.05;1.70;;;18.90;69.20;;;;;;4216934;27;20043;-41
2022/10/10 02:21:33;;;;;;;12.52;1.58;;;18.90;69.20;;;;;;4216635;27;20039;-44
2022/10/10 02:24:01;;;;;;;5.07;1.10;;;19.00;69.20;;;;;;4210413;28;20032;-44
2022/10/10 02:26:25;;;;;;;2.28;1.00;;;18.90;69.20;;;;;;4223451;27;20129;-42
2022/10/10 02:29:04;;;;;;;3.33;1.02;;;19.00;69.20;;;;;;4219752;27;20126;-43
2022/10/10 02:31:38;;;;;;;2.15;1.08;;;19.00;69.10;;;;;;4225965;27;20511;-46
2022/10/10 02:34:13;;;;;;;5.20;1.30;;;19.00;69.10;;;;;;4213765;28;20229;-40
2022/10/10 02:36:35;;;;;;;;;;;19.00;69.10;;;;;;4230139;27;20055;-40
2022/10/10 02:38:59;;;;;;;1.50;0.70;;;19.00;69.10;;;;;;4225742;27;19912;-39
2022/10/10 02:41:23;;;;;;;2.67;1.00;;;19.00;69.10;;;;;;4231367;28;21285;-40
2022/10/10 02:43:45;;;;;;;2.22;1.08;;;19.10;69.20;;;;;;4219344;28;20036;-39
2022/10/10 02:46:12;;;;;;;1.45;0.85;;;19.10;69.10;;;;;;4218846;28;20102;-40
2022/10/10 02:48:34;;;;;;;2.95;1.00;;;19.10;69.00;;;;;;4219810;28;20549;-39
2022/10/10 02:50:57;;;;;;;2.10;1.35;;;19.10;69.00;;;;;;4218221;28;20398;-40
2022/10/10 02:53:20;;;;;;;1.83;0.88;;;19.10;68.90;;;;;;4221533;27;20038;-40
2022/10/10 02:55:42;;;;;;;1.67;0.70;;;19.20;69.00;;;;;;4224617;27;20081;-39
2022/10/10 02:58:05;;;;;;;1.33;1.00;;;19.20;68.90;;;;;;4227068;27;20039;-41
2022/10/10 03:00:27;;;;;;;3.00;0.90;;;19.30;68.90;;;;;;4227616;27;20031;-40
2022/10/10 03:02:50;;;;;;;1.50;1.00;;;19.30;68.70;;;;;;4227869;27;20495;-40
2022/10/10 03:05:13;;;;;;;1.10;0.60;;;19.30;68.70;;;;;;4220613;27;20131;-40
2022/10/10 03:07:36;;;;;;;2.30;0.80;;;19.30;68.60;;;;;;4222679;27;20035;-41
2022/10/10 03:09:58;;;;;;;7.57;1.13;;;19.40;68.60;;;;;;4228550;27;20064;-43
2022/10/10 03:12:21;;;;;;;1.35;0.80;;;19.30;68.60;;;;;;4228068;27;20040;-46
2022/10/10 03:14:43;;;;;;;2.67;0.95;;;19.40;68.50;;;;;;4225186;27;20482;-44
2022/10/10 03:17:06;;;;;;;2.15;0.70;;;19.40;68.50;;;;;;4233991;27;20039;-41
2022/10/10 03:19:29;;;;;;;1.10;0.88;;;19.40;68.50;;;;;;4237438;27;20474;-40
2022/10/10 03:21:51;;;;;;;1.08;0.60;;;19.40;68.50;;;;;;4236634;27;20054;-40
2022/10/10 03:24:14;;;;;;;2.03;0.57;;;19.50;68.50;;;;;;4227250;27;20032;-41
2022/10/10 03:26:36;;;;;;;0.82;0.60;;;19.50;68.40;;;;;;4227298;27;20076;-41
2022/10/10 03:29:00;;;;;;;0.93;0.60;;;19.50;68.30;;;;;;4227369;27;20048;-40
2022/10/10 03:31:23;;;;;;;2.20;0.68;;;19.50;68.40;;;;;;4226781;27;20086;-43
2022/10/10 03:33:45;;;;;;;0.95;0.75;;;19.50;68.30;;;;;;4219717;27;20043;-41
2022/10/10 03:36:08;;;;;;;1.00;0.68;;;19.50;68.10;;;;;;4230240;27;20051;-40
2022/10/10 03:38:31;;;;;;;1.90;0.60;;;19.50;68.20;;;;;;4223836;27;20045;-41
2022/10/10 03:40:53;;;;;;;1.83;0.82;;;19.50;68.20;;;;;;4216645;27;20112;-40
2022/10/10 03:43:16;;;;;;;0.88;0.57;;;19.50;68.10;;;;;;4215501;27;20782;-40
2022/10/10 03:45:40;;;;;;;1.25;0.60;;;19.60;68.20;;;;;;4221049;27;20173;-39
2022/10/10 03:48:04;;;;;;;1.08;0.60;;;19.60;68.20;;;;;;4218838;27;20039;-41
2022/10/10 03:50:26;;;;;;;1.35;0.77;;;19.60;68.10;;;;;;4229816;27;20023;-41
2022/10/10 03:52:49;;;;;;;0.95;0.60;;;19.60;68.10;;;;;;4210458;27;20071;-43
2022/10/10 03:55:11;;;;;;;0.90;0.60;;;19.60;68.10;;;;;;4217072;27;20042;-42
2022/10/10 03:57:34;;;;;;;2.10;0.57;;;19.60;68.10;;;;;;4219718;27;20126;-41
2022/10/10 03:59:56;;;;;;;2.10;0.85;;;19.60;68.00;;;;;;4223800;27;20453;-42
2022/10/10 04:02:19;;;;;;;0.60;0.50;;;19.60;68.10;;;;;;4218418;27;20118;-45
2022/10/10 04:04:41;;;;;;;3.83;0.70;;;19.70;68.20;;;;;;4217369;27;20279;-41
2022/10/10 04:07:04;;;;;;;0.75;0.45;;;19.70;68.10;;;;;;4212332;27;20475;-43
2022/10/10 04:09:27;;;;;;;1.45;0.60;;;19.70;68.00;;;;;;4213774;27;20224;-41
2022/10/10 04:11:49;;;;;;;1.15;0.57;;;19.80;68.00;;;;;;4216095;27;20039;-43
2022/10/10 04:14:12;;;;;;;1.20;0.73;;;19.80;67.80;;;;;;4213362;27;20075;-44
2022/10/10 04:16:34;;;;;;;1.80;0.70;;;19.90;67.70;;;;;;4212219;27;20414;-43
2022/10/10 04:18:57;;;;;;;1.85;0.50;;;20.00;67.50;;;;;;4206690;27;20067;-44
2022/10/10 04:21:19;;;;;;;0.77;0.40;;;20.10;67.30;;;;;;4212725;27;20407;-39
2022/10/10 04:23:42;;;;;;;1.02;0.52;;;20.20;67.20;;;;;;4216369;27;20054;-43
2022/10/10 04:26:04;;;;;;;1.33;0.52;;;20.20;66.90;;;;;;4212967;27;20035;-42
2022/10/10 04:28:27;;;;;;;0.90;0.47;;;20.30;66.90;;;;;;4226517;27;20035;-45
2022/10/10 04:30:49;;;;;;;0.80;0.65;;;20.30;66.90;;;;;;4227403;27;20375;-41
2022/10/10 04:33:12;;;;;;;1.50;0.50;;;20.30;66.90;;;;;;4202009;28;20038;-41
2022/10/10 04:35:34;;;;;;;0.65;0.45;;;20.30;66.90;;;;;;4208466;27;20090;-45
2022/10/10 04:37:57;;;;;;;0.80;0.43;;;20.30;66.90;;;;;;4209714;27;20079;-41
2022/10/10 04:40:20;;;;;;;2.50;0.73;;;20.30;66.90;;;;;;4207424;27;20028;-40
2022/10/10 04:42:42;;;;;;;2.65;0.60;;;20.30;67.00;;;;;;4216681;28;20509;-40
2022/10/10 04:45:05;;;;;;;1.15;0.60;;;20.30;67.00;;;;;;4222084;27;20031;-40
2022/10/10 04:47:28;;;;;;;1.20;0.52;;;20.30;66.80;;;;;;4214647;28;20071;-41
2022/10/10 04:49:51;;;;;;;0.40;0.40;;;20.30;66.70;;;;;;4225530;27;20035;-45
2022/10/10 04:52:13;;;;;;;0.93;0.47;;;20.40;66.70;;;;;;4225201;27;20514;-41
2022/10/10 04:54:36;;;;;;;1.80;0.63;;;20.40;66.50;;;;;;4220015;27;20094;-44
2022/10/10 04:56:58;;;;;;;3.92;0.75;;;20.40;66.60;;;;;;4208305;27;20092;-46
2022/10/10 04:59:21;;;;;;;2.13;0.70;;;20.40;66.50;;;;;;4216120;27;20047;-44
2022/10/10 05:01:43;;;;;;;3.53;1.10;;;20.40;66.50;;;;;;4216195;27;20027;-41
2022/10/10 05:04:06;;;;;;;1.63;0.68;;;20.40;66.50;;;;;;4219737;27;20027;-44
2022/10/10 05:06:28;;;;;;;2.55;0.55;;;20.40;66.50;;;;;;4209959;28;20130;-43
2022/10/10 05:08:51;;;;;;;3.03;0.80;;;20.40;66.40;;;;;;4215403;27;20044;-41
2022/10/10 05:11:13;;;;;;;1.65;0.68;;;20.40;66.50;;;;;;4213958;28;20043;-43
2022/10/10 05:13:36;;;;;;;2.30;0.60;;;20.50;66.60;;;;;;4205670;27;20194;-44
2022/10/10 05:15:59;;;;;;;0.68;0.50;;;20.60;66.10;;;;;;4214593;28;20032;-42
2022/10/10 05:18:22;;;;;;;1.98;0.77;;;20.70;65.70;;;;;;4210147;27;20110;-40
2022/10/10 05:20:46;;;;;;;4.45;0.90;;;20.70;65.60;;;;;;4227173;27;20039;-40
2022/10/10 05:23:09;;;;;;;0.73;0.40;;;20.80;65.10;;;;;;4224702;27;20506;-41
2022/10/10 05:25:31;;;;;;;7.18;0.63;;;20.80;64.90;;;;;;4229169;27;20067;-40
2022/10/10 05:27:54;;;;;;;0.80;0.63;;;20.90;64.80;;;;;;4229723;27;20503;-41
2022/10/10 05:30:17;;;;;;;1.27;0.70;;;20.80;64.50;;;;;;4219724;27;20035;-41
2022/10/10 05:32:39;;;;;;;3.47;0.70;;;20.80;64.20;;;;;;4197722;27;20039;-42
2022/10/10 05:35:03;;;;;;;4.93;0.70;;;20.80;64.30;;;;;;4219714;27;20040;-42
2022/10/10 05:37:26;;;;;;;1.92;0.77;;;20.70;64.40;;;;;;4214920;27;20052;-40
2022/10/10 05:39:48;;;;;;;5.00;0.82;;;20.70;64.60;;;;;;4220611;27;20277;-41
2022/10/10 05:42:12;;;;;;;1.60;0.70;;;20.70;64.70;;;;;;4211024;27;20071;-41
2022/10/10 05:44:35;;;;;;;1.65;0.63;;;20.60;64.80;;;;;;4219236;27;20395;-42
2022/10/10 05:46:57;;;;;;;3.35;0.50;;;20.70;65.00;;;;;;4213688;27;20140;-43
2022/10/10 05:49:20;;;;;;;1.17;0.40;;;20.60;64.80;;;;;;4217488;27;20118;-41
2022/10/10 05:51:43;;;;;;;2.88;0.57;;;20.60;64.80;;;;;;4215533;27;20049;-43
2022/10/10 05:54:05;;;;;;;4.47;0.93;;;20.60;64.80;;;;;;4215317;27;20038;-42
2022/10/10 05:56:28;;;;;;;1.95;0.80;;;20.60;64.90;;;;;;4214259;27;20058;-42
2022/10/10 05:58:50;;;;;;;3.20;0.65;;;20.60;65.10;;;;;;4215627;27;20040;-41
2022/10/10 06:01:13;;;;;;;2.97;0.85;;;20.60;65.10;;;;;;4217888;27;20031;-42
2022/10/10 06:03:36;;;;;;;8.50;1.40;;;20.50;65.00;;;;;;4217565;27;20044;-43
2022/10/10 06:05:58;;;;;;;5.95;1.42;;;20.50;65.40;;;;;;4221895;27;20074;-41
2022/10/10 06:08:21;;;;;;;3.10;0.77;;;20.50;65.50;;;;;;4212771;27;20036;-41
2022/10/10 06:10:45;;;;;;;1.33;0.85;;;20.50;65.50;;;;;;4228313;27;20039;-42
2022/10/10 06:13:07;;;;;;;;;;;20.50;65.50;;;;;;4228907;27;20050;-41
2022/10/10 06:15:30;;;;;;;2.17;0.60;;;20.50;65.40;;;;;;4226966;27;20390;-40
2022/10/10 06:17:53;;;;;;;2.92;0.70;;;20.50;65.30;;;;;;4217321;28;20047;-40
2022/10/10 06:20:15;;;;;;;1.33;0.50;;;20.50;65.30;;;;;;4218484;27;20472;-42
2022/10/10 06:22:38;;;;;;;2.15;0.63;;;20.40;65.20;;;;;;4225344;27;20043;-41
2022/10/10 06:25:00;;;;;;;0.95;0.50;;;20.40;65.30;;;;;;4219486;27;20039;-42
2022/10/10 06:27:23;;;;;;;3.63;0.73;;;20.40;65.30;;;;;;4230517;27;20137;-44
2022/10/10 06:29:46;;;;;;;0.95;0.45;;;20.40;65.30;;;;;;4224005;27;20119;-43
2022/10/10 06:32:08;;;;;;;1.75;0.50;;;20.40;65.40;;;;;;4215781;27;20036;-43
2022/10/10 06:34:31;;;;;;;0.77;0.60;;;20.30;65.30;;;;;;4223276;27;20043;-41
2022/10/10 06:36:53;;;;;;;1.27;0.60;;;20.30;65.30;;;;;;4224640;28;20047;-43
2022/10/10 06:39:19;;;;;;;2.53;0.60;;;20.30;65.30;;;;;;4217336;28;20134;-47
2022/10/10 06:41:41;;;;;;;0.82;0.60;;;20.30;65.20;;;;;;4228129;28;20093;-41
2022/10/10 06:44:04;;;;;;;9.65;0.75;;;20.30;65.20;;;;;;4226285;28;20047;-41
2022/10/10 06:46:26;;;;;;;0.57;0.45;;;20.30;65.30;;;;;;4224684;28;20381;-43
2022/10/10 06:48:49;;;;;;;1.52;0.43;;;20.30;65.30;;;;;;4231407;28;20466;-42
2022/10/10 06:51:15;;;;;;;1.33;0.40;;;20.30;65.30;;;;;;4210785;28;20074;-42
2022/10/10 06:53:37;;;;;;;6.20;0.95;;;20.20;65.20;;;;;;4210758;28;20113;-42
2022/10/10 06:56:00;;;;;;;1.15;0.60;;;20.20;65.20;;;;;;4210801;28;20044;-43
2022/10/10 06:58:25;;;;;;;2.42;0.45;;;20.20;65.20;;;;;;4203988;28;20055;-45
2022/10/10 07:00:52;;;;;;;1.02;0.80;;;20.20;65.00;;;;;;4202958;28;20038;-45
2022/10/10 07:03:14;;;;;;;2.15;0.73;;;20.20;64.90;;;;;;4203219;28;20512;-46
2022/10/10 07:05:37;;;;;;;4.43;1.13;;;20.20;64.80;;;;;;4199925;28;20032;-48
2022/10/10 07:07:59;;;;;;;1.67;0.85;;;20.20;64.60;;;;;;4205826;28;20500;-43
2022/10/10 07:10:22;;;;;;;4.30;0.90;;;20.20;64.50;;;;;;4206592;28;20051;-42
2022/10/10 07:12:45;;;;;;;6.75;1.23;;;20.20;64.50;;;;;;4206856;28;20118;-43
2022/10/10 07:15:08;;;;;;;15.70;1.30;;;20.20;64.80;;;;;;4208930;28;20666;-43
2022/10/10 07:17:30;;;;;;;4.97;1.13;;;20.20;65.40;;;;;;4194672;28;20048;-43
2022/10/10 07:19:53;;;;;;;1.48;0.80;;;20.20;65.50;;;;;;4198268;28;20036;-42
2022/10/10 07:22:15;;;;;;;3.05;1.00;;;20.20;65.70;;;;;;4209860;28;20548;-42
2022/10/10 07:24:38;;;;;;;1.95;0.57;;;20.10;65.90;;;;;;4209451;28;20046;-42
2022/10/10 07:27:00;;;;;;;3.08;1.17;;;20.20;65.80;;;;;;4201148;28;20190;-45
2022/10/10 07:29:23;;;;;;;1.48;0.65;;;20.20;65.80;;;;;;4200582;28;20309;-42
2022/10/10 07:31:46;;;;;;;2.33;0.60;;;20.20;65.80;;;;;;4207273;28;20063;-44
2022/10/10 07:34:08;;;;;;;1.58;0.68;;;20.10;65.70;;;;;;4193925;28;20068;-44
2022/10/10 07:36:31;;;;;;;1.13;0.55;;;20.10;65.70;;;;;;4209662;28;20537;-44
2022/10/10 07:38:54;;;;;;;2.05;0.80;;;20.20;65.80;;;;;;4216621;28;20416;-43
2022/10/10 07:41:17;;;;;;;1.10;0.65;;;20.10;65.70;;;;;;4209284;27;20590;-43
2022/10/10 07:43:40;;;;;;;1.88;0.70;;;20.10;65.70;;;;;;4206699;27;20044;-43
2022/10/10 07:46:06;;;;;;;2.03;0.90;;;20.10;65.70;;;;;;4201990;27;20063;-42
2022/10/10 07:48:29;;;;;;;0.77;0.45;;;20.20;65.80;;;;;;4210235;27;20036;-44
2022/10/10 07:50:52;;;;;;;2.97;0.87;;;20.10;65.70;;;;;;4210145;27;20035;-45
2022/10/10 07:56:33;;;;;;;1.23;0.63;;;20.10;66.00;;;;;;4209326;27;20031;-42
2022/10/10 07:58:55;;;;;;;3.33;0.73;;;20.10;66.00;;;;;;4206273;27;20407;-42
2022/10/10 08:01:18;;;;;;;2.97;0.95;;;20.10;66.00;;;;;;4210120;27;20039;-48
2022/10/10 08:03:41;;;;;;;2.30;0.52;;;20.10;66.60;;;;;;4215242;27;20039;-44
2022/10/10 08:06:06;;;;;;;2.97;0.77;;;20.10;66.60;;;;;;4202629;27;20035;-43
2022/10/10 08:08:29;;;;;;;4.15;0.90;;;20.10;66.10;;;;;;4199645;27;20097;-47
2022/10/10 08:10:52;;;;;;;7.43;1.08;;;20.10;66.20;;;;;;4212413;27;20035;-41
2022/10/10 08:13:14;;;;;;;2.60;0.73;;;20.10;66.20;;;;;;4209516;27;20442;-41
2022/10/10 08:15:40;;;;;;;1.35;0.60;;;20.10;66.10;;;;;;4202516;27;20178;-43
2022/10/10 08:18:02;;;;;;;3.65;1.00;;;20.10;66.10;;;;;;4206681;27;20050;-41
2022/10/10 08:20:25;;;;;;;2.45;0.70;;;20.00;66.00;;;;;;4212123;27;20444;-44
2022/10/10 08:22:48;;;;;;;2.25;0.73;;;20.10;66.10;;;;;;4213427;27;20031;-43
2022/10/10 08:25:10;;;;;;;1.67;0.80;;;20.00;66.00;;;;;;4210779;27;20381;-42
2022/10/10 08:27:34;;;;;;;1.30;0.65;;;20.00;66.20;;;;;;4208155;27;20757;-42
2022/10/10 08:29:57;;;;;;;3.08;0.95;;;20.00;66.20;;;;;;4218362;27;20115;-43
2022/10/10 08:32:19;;;;;;;1.15;0.55;;;20.00;66.30;;;;;;4215858;27;20480;-46
2022/10/10 08:34:42;;;;;;;2.97;0.90;;;20.00;66.30;;;;;;4215660;27;20032;-42
2022/10/10 08:37:04;;;;;;;0.85;0.50;;;20.00;66.30;;;;;;4213438;27;20094;-42
2022/10/10 08:39:27;;;;;;;0.80;0.65;;;20.00;67.00;;;;;;4213859;27;20039;-49
2022/10/10 08:41:56;;;;;;;1.15;0.50;;;20.00;66.30;;;;;;4206907;27;20043;-42
2022/10/10 08:44:48;;;;;;;4.28;0.90;;;20.00;66.30;;;;;;4204157;28;20042;-46
2022/10/10 08:47:39;;;;;;;2.67;0.82;;;20.00;66.30;;;;;;4220692;27;20114;-43
2022/10/10 08:50:33;;;;;;;1.42;0.70;;;20.00;66.30;;;;;;4222671;27;20040;-42
2022/10/10 08:52:58;;;;;;;1.40;0.68;;;20.00;66.10;;;;;;4218715;27;20448;-42
2022/10/10 08:55:34;;;;;;;1.67;0.60;;;20.00;66.20;;;;;;4216838;28;20039;-43
2022/10/10 08:58:20;;;;;;;3.33;0.80;;;20.00;66.20;;;;;;4211703;28;20055;-44
2022/10/10 09:01:10;;;;;;;1.95;0.82;;;19.90;66.70;;;;;;4214047;28;20040;-44
2022/10/10 09:03:52;;;;;;;1.42;0.82;;;19.90;66.00;;;;;;4214251;28;20040;-45
2022/10/10 09:06:35;;;;;;;1.90;0.65;;;19.90;66.10;;;;;;4210744;28;20606;-43
2022/10/10 09:09:15;;;;;;;1.20;0.70;;;19.90;66.00;;;;;;4208796;28;20495;-44
2022/10/10 09:11:55;;;;;;;2.58;0.90;;;19.90;66.00;;;;;;4223271;27;20040;-50
2022/10/10 09:14:34;;;;;;;5.32;1.00;;;19.90;65.90;;;;;;4207663;27;20028;-43
2022/10/10 09:17:14;;;;;;;3.13;0.90;;;19.90;66.00;;;;;;4210846;28;20047;-44
2022/10/10 09:19:52;;;;;;;1.38;0.70;;;19.90;66.00;;;;;;4215617;27;20089;-45
2022/10/10 09:22:22;;;;;;;1.58;0.85;;;19.90;66.00;;;;;;4207224;28;20059;-44
2022/10/10 09:24:58;;;;;;;1.48;0.50;;;19.90;66.00;;;;;;4215560;28;20047;-44
2022/10/10 09:27:27;;;;;;;0.93;0.65;;;19.90;66.00;;;;;;4214752;27;20051;-46
2022/10/10 09:29:54;;;;;;;2.70;0.98;;;19.80;65.90;;;;;;4216870;27;20517;-44
2022/10/10 09:32:33;;;;;;;1.10;0.75;;;19.80;65.90;;;;;;4207616;28;20035;-44
2022/10/10 09:35:06;;;;;;;1.40;0.70;;;19.80;66.00;;;;;;4215080;27;20560;-43
2022/10/10 09:37:37;;;;;;;1.77;0.93;;;19.80;66.00;;;;;;4216349;27;20112;-45
2022/10/10 09:40:16;;;;;;;2.00;0.68;;;19.80;66.10;;;;;;4210543;27;20141;-42
2022/10/10 09:42:43;;;;;;;0.90;0.63;;;19.80;66.10;;;;;;4218579;27;20113;-43
2022/10/10 09:45:20;;;;;;;2.13;0.60;;;19.80;66.00;;;;;;4211685;27;20503;-43
2022/10/10 09:47:42;;;;;;;1.50;0.75;;;19.80;66.10;;;;;;4213906;27;20028;-43
2022/10/10 09:50:05;;;;;;;2.83;0.80;;;19.80;66.10;;;;;;4211688;27;20035;-41
2022/10/10 09:52:30;;;;;;;1.65;0.93;;;19.80;66.10;;;;;;4217814;27;20517;-48
2022/10/10 09:55:04;;;;;;;1.50;0.88;;;19.80;66.10;;;;;;4211609;27;20032;-42
2022/10/10 09:57:36;;;;;;;2.00;0.82;;;19.80;66.20;;;;;;4214954;27;20154;-46
2022/10/10 09:59:59;;;;;;;3.35;0.82;;;19.80;66.10;;;;;;4211850;27;20388;-45
2022/10/10 10:02:25;;;;;;;1.00;0.68;;;19.80;66.10;;;;;;4212061;27;20047;-44
2022/10/10 10:04:49;;;;;;;2.85;0.93;;;19.80;66.10;;;;;;4213999;27;20592;-45
2022/10/10 10:07:24;;;;;;;1.88;0.88;;;19.80;66.00;;;;;;4220564;27;20471;-42
2022/10/10 10:09:56;;;;;;;3.33;1.10;;;19.80;66.40;;;;;;4218662;27;20103;-44
2022/10/10 10:12:26;;;;;;;3.55;1.52;;;19.80;64.90;;;;;;4214508;27;20032;-40
2022/10/10 10:14:50;;;;;;;3.88;1.35;;;19.70;63.70;;;;;;4219705;28;20470;-42
2022/10/10 10:17:20;;;;;;;3.22;1.63;;;19.70;63.30;;;;;;4219956;27;20046;-43
2022/10/10 10:19:47;;;;;;;4.25;1.25;;;19.70;63.00;;;;;;4229760;27;20050;-42
2022/10/10 10:22:39;;;;;;;4.82;1.85;;;19.70;62.90;;;;;;4227306;27;20470;-41
2022/10/10 10:25:37;;;;;;;2.97;1.55;;;19.60;63.00;;;;;;4212763;27;20043;-42
2022/10/10 10:28:14;;;;;;;3.30;1.55;;;19.60;63.70;;;;;;4215398;27;20039;-45
2022/10/10 10:30:38;;;;;;;4.60;1.50;;;19.60;64.20;;;;;;4218863;27;20082;-45
2022/10/10 10:33:05;;;;;;;;;;;19.60;64.60;;;;;;4224491;27;20032;-43
2022/10/10 10:35:43;;;;;;;3.97;1.35;;;19.60;64.80;;;;;;4219940;27;20328;-43
2022/10/10 10:38:33;;;;;;;3.15;1.20;;;19.60;64.90;;;;;;4212779;28;20130;-45
2022/10/10 10:41:12;;;;;;;6.70;1.80;;;19.60;65.10;;;;;;4212558;28;20035;-48
2022/10/10 10:43:52;;;;;;;1.58;0.90;;;19.60;65.30;;;;;;4214558;28;20445;-45
2022/10/10 10:46:27;;;;;;;1.65;1.00;;;19.60;65.40;;;;;;4216947;28;20028;-46
2022/10/10 10:48:55;;;;;;;1.35;1.00;;;19.60;65.60;;;;;;4215292;28;20510;-46
2022/10/10 10:51:42;;;;;;;2.60;1.30;;;19.50;65.60;;;;;;4217554;28;20058;-44
2022/10/10 10:54:29;;;;;;;2.17;0.98;;;19.50;65.60;;;;;;4213118;28;20043;-42
2022/10/10 10:57:02;;;;;;;2.20;1.00;;;19.50;65.80;;;;;;4218621;28;20050;-43
2022/10/10 10:59:57;;;;;;;1.35;0.88;;;19.50;65.90;;;;;;4214273;28;20518;-45
2022/10/10 11:02:42;;;;;;;2.13;1.23;;;19.50;65.90;;;;;;4219061;28;20750;-43
2022/10/10 11:05:33;;;;;;;1.90;0.95;;;19.50;66.30;;;;;;4210249;28;20028;-45
2022/10/10 11:08:17;;;;;;;2.08;0.88;;;19.50;66.20;;;;;;4216368;28;20035;-47
2022/10/10 11:10:54;;;;;;;5.73;1.20;;;19.50;66.30;;;;;;4213716;28;20489;-42
2022/10/10 11:13:45;;;;;;;2.25;0.77;;;19.50;66.40;;;;;;4218034;27;20040;-44
2022/10/10 11:16:23;;;;;;;1.90;1.00;;;19.50;66.30;;;;;;4216341;27;20119;-44
2022/10/10 11:18:51;;;;;;;1.40;0.82;;;19.50;66.40;;;;;;4217408;27;20713;-48
2022/10/10 11:21:21;;;;;;;1.63;0.82;;;19.50;66.40;;;;;;4217178;27;20024;-42
2022/10/10 11:23:57;;;;;;;2.33;0.95;;;19.40;66.40;;;;;;4218077;27;20036;-43
2022/10/10 11:26:38;;;;;;;3.55;1.15;;;19.40;66.40;;;;;;4218850;27;20127;-42
2022/10/10 11:29:16;;;;;;;3.22;1.02;;;19.40;66.40;;;;;;4224286;27;20039;-43
2022/10/10 11:31:46;;;;;;;2.45;1.00;;;19.40;66.50;;;;;;4214670;27;20150;-43
2022/10/10 11:34:41;;;;;;;2.17;1.27;;;19.40;66.60;;;;;;4213641;27;20040;-42
2022/10/10 11:37:12;;;;;;;4.38;1.30;;;19.40;66.70;;;;;;4211892;27;20040;-44
2022/10/10 11:39:52;;;;;;;4.85;1.10;;;19.40;67.10;;;;;;4215349;27;20030;-43
2022/10/10 11:42:29;;;;;;;8.57;1.35;;;19.40;67.10;;;;;;4215057;27;20521;-42
2022/10/10 11:45:14;;;;;;;3.85;1.20;;;19.40;67.10;;;;;;4212329;27;20115;-43
2022/10/10 11:48:12;;;;;;;2.53;1.10;;;19.40;67.10;;;;;;4211398;27;20655;-44
2022/10/10 11:50:42;;;;;;;2.72;0.98;;;19.40;67.10;;;;;;4196859;27;20457;-42
2022/10/10 11:53:25;;;;;;;2.47;0.90;;;19.40;67.00;;;;;;4216839;27;20035;-44
2022/10/10 11:56:17;;;;;;;2.15;0.90;;;19.40;67.10;;;;;;4221996;27;20494;-41
2022/10/10 12:05:04;;;;;;;2.22;0.73;;;19.40;67.20;;;;;;4220765;27;20372;-44
2022/10/10 12:07:36;;;;;;;3.30;0.90;;;19.40;67.20;;;;;;4214211;27;20038;-45
2022/10/10 12:10:40;;;;;;;1.58;0.60;;;19.40;67.20;;;;;;4218477;27;20036;-44
2022/10/10 12:13:23;;;;;;;2.95;0.80;;;19.30;67.20;;;;;;4192591;27;20032;-43
2022/10/10 12:15:51;;;;;;;3.05;0.95;;;19.30;67.20;;;;;;4221051;27;20487;-45
2022/10/10 12:18:44;;;;;;;1.08;0.77;;;19.30;67.20;;;;;;4208125;27;20136;-44
2022/10/10 12:21:18;;;;;;;2.55;0.82;;;19.30;67.20;;;;;;4204423;28;20027;-47
2022/10/10 12:24:03;;;;;;;2.72;1.08;;;19.30;67.40;;;;;;4214787;28;20044;-42
2022/10/10 12:26:45;;;;;;;2.25;0.60;;;19.30;67.40;;;;;;4209897;28;20385;-49
2022/10/10 12:29:11;;;;;;;3.42;1.00;;;19.20;67.30;;;;;;4213071;27;20074;-46
2022/10/10 12:31:34;;;;;;;2.55;0.98;;;19.20;67.50;;;;;;4212799;28;20035;-47
2022/10/10 12:33:58;;;;;;;1.25;0.65;;;19.20;67.40;;;;;;4212457;28;20024;-48
2022/10/10 12:36:20;;;;;;;;;;;19.20;67.40;;;;;;4213316;28;20170;-47
2022/10/10 12:39:07;;;;;;;1.73;0.80;;;19.20;67.50;;;;;;4214362;27;20280;-45
2022/10/10 12:41:50;;;;;;;0.75;0.57;;;19.20;67.50;;;;;;4212898;27;20102;-46
2022/10/10 12:44:44;;;;;;;2.47;1.00;;;19.20;67.60;;;;;;4206952;28;20043;-45
2022/10/10 12:47:15;;;;;;;1.98;0.98;;;19.20;67.60;;;;;;4216739;28;20584;-43
2022/10/10 12:49:47;;;;;;;1.80;0.75;;;19.20;67.80;;;;;;4201800;28;20051;-45
2022/10/10 12:52:31;;;;;;;1.73;0.90;;;19.20;67.80;;;;;;4215081;28;20031;-46
2022/10/10 12:55:01;;;;;;;2.10;0.77;;;19.20;67.80;;;;;;4214978;28;20047;-43
2022/10/10 12:57:32;;;;;;;1.98;0.93;;;19.20;67.90;;;;;;4214071;28;20480;-45
2022/10/10 12:59:54;;;;;;;1.95;0.70;;;19.20;67.80;;;;;;4217163;28;20035;-44
2022/10/10 13:02:26;;;;;;;2.13;0.68;;;19.10;67.80;;;;;;4213703;27;20140;-47
2022/10/10 13:04:54;;;;;;;3.42;0.93;;;19.20;68.00;;;;;;4215771;27;20114;-42